createdAt,value
2018-07-02T00:00:20.921Z,13.30
2018-07-02T00:04:25.213Z,13.30
2018-07-02T00:08:29.511Z,13.30
2018-07-02T00:12:33.810Z,13.50
2018-07-02T00:16:38.058Z,13.60
2018-07-02T00:20:42.378Z,13.80
2018-07-02T00:24:46.740Z,13.70
2018-07-02T00:28:51.027Z,13.90
2018-07-02T00:32:55.330Z,13.90
2018-07-02T00:36:59.611Z,13.90
2018-07-02T00:41:03.927Z,13.70
2018-07-02T00:45:08.186Z,13.70
2018-07-02T00:49:12.550Z,13.70
2018-07-02T00:53:16.957Z,13.80
2018-07-02T00:57:21.228Z,13.60
2018-07-02T01:01:28.192Z,13.50
2018-07-02T01:05:32.430Z,13.30
2018-07-02T01:09:36.814Z,13.50
2018-07-02T01:13:41.141Z,13.50
2018-07-02T01:17:45.437Z,13.30
2018-07-02T01:21:49.701Z,13.10
2018-07-02T01:25:54.003Z,13.00
2018-07-02T01:29:58.230Z,13.00
2018-07-02T01:34:02.532Z,13.00
2018-07-02T01:38:06.959Z,13.10
2018-07-02T01:42:11.245Z,13.30
2018-07-02T01:46:15.587Z,13.30
2018-07-02T01:50:20.089Z,13.20
2018-07-02T01:54:24.364Z,13.10
2018-07-02T01:58:28.644Z,13.20
2018-07-02T02:02:33.030Z,13.30
2018-07-02T02:06:37.349Z,13.50
2018-07-02T02:10:41.729Z,13.40
2018-07-02T02:14:45.959Z,13.60
2018-07-02T02:18:50.230Z,13.70
2018-07-02T02:22:54.626Z,13.80
2018-07-02T02:26:58.907Z,13.90
2018-07-02T02:31:03.229Z,13.90
2018-07-02T02:35:07.739Z,14.00
2018-07-02T02:39:12.107Z,14.00
2018-07-02T02:43:16.473Z,14.00
2018-07-02T02:47:20.755Z,14.00
2018-07-02T02:51:25.048Z,14.00
2018-07-02T02:55:29.338Z,14.10
2018-07-02T02:59:33.639Z,13.90
2018-07-02T03:03:38.087Z,14.00
2018-07-02T03:07:42.475Z,14.00
2018-07-02T03:11:46.809Z,14.00
2018-07-02T03:15:51.180Z,14.10
2018-07-02T03:19:55.443Z,14.10
2018-07-02T03:23:59.753Z,14.10
2018-07-02T03:28:04.093Z,14.10
2018-07-02T03:32:08.484Z,14.10
2018-07-02T03:36:12.828Z,14.20
2018-07-02T03:40:17.048Z,14.20
2018-07-02T03:44:21.332Z,14.20
2018-07-02T03:48:25.699Z,14.30
2018-07-02T03:52:29.961Z,14.30
2018-07-02T03:56:34.216Z,14.40
2018-07-02T04:00:38.632Z,14.40
2018-07-02T04:04:42.859Z,14.40
2018-07-02T04:08:47.237Z,14.50
2018-07-02T04:12:51.536Z,14.60
2018-07-02T04:16:55.916Z,14.50
2018-07-02T04:21:00.217Z,14.70
2018-07-02T04:25:05.769Z,14.70
2018-07-02T04:29:10.596Z,14.60
2018-07-02T04:33:14.849Z,14.70
2018-07-02T04:37:19.222Z,15.00
2018-07-02T04:41:23.491Z,15.10
2018-07-02T04:45:27.775Z,14.90
2018-07-02T04:49:32.191Z,15.10
2018-07-02T04:53:36.437Z,15.30
2018-07-02T04:57:40.712Z,15.50
2018-07-02T05:01:45.036Z,15.60
2018-07-02T05:05:49.315Z,15.70
2018-07-02T05:09:53.567Z,15.70
2018-07-02T05:13:57.828Z,15.90
2018-07-02T05:18:02.080Z,16.10
2018-07-02T05:22:06.449Z,16.20
2018-07-02T05:26:10.797Z,16.20
2018-07-02T05:30:15.014Z,16.30
2018-07-02T05:34:19.415Z,16.30
2018-07-02T05:38:23.624Z,16.50
2018-07-02T05:42:27.898Z,16.70
2018-07-02T05:46:32.222Z,17.00
2018-07-02T05:50:36.453Z,17.00
2018-07-02T05:54:40.851Z,17.20
2018-07-02T05:58:44.970Z,17.40
2018-07-02T06:02:49.175Z,17.60
2018-07-02T06:06:53.422Z,17.80
2018-07-02T06:10:57.819Z,18.10
2018-07-02T06:15:02.036Z,18.30
2018-07-02T06:19:06.436Z,18.50
2018-07-02T06:23:10.648Z,18.80
2018-07-02T06:27:14.860Z,18.80
2018-07-02T06:31:19.284Z,18.50
2018-07-02T06:35:23.514Z,18.80
2018-07-02T06:39:27.801Z,19.10
2018-07-02T06:43:32.220Z,19.10
2018-07-02T06:47:36.497Z,18.70
2018-07-02T06:51:40.766Z,18.70
2018-07-02T06:55:45.327Z,19.00
2018-07-02T06:59:49.635Z,18.90
2018-07-02T07:03:55.150Z,19.00
2018-07-02T07:07:59.473Z,19.30
2018-07-02T07:12:03.872Z,19.60
2018-07-02T07:16:08.249Z,19.80
2018-07-02T07:20:12.565Z,19.70
2018-07-02T07:24:16.975Z,19.70
2018-07-02T07:28:21.323Z,19.70
2018-07-02T07:32:25.795Z,19.80
2018-07-02T07:36:41.590Z,19.70
2018-07-02T07:40:47.887Z,19.70
2018-07-02T07:44:52.763Z,20.20
2018-07-02T07:48:57.453Z,20.50
2018-07-02T07:53:01.773Z,20.20
2018-07-02T07:57:06.126Z,20.50
2018-07-02T08:01:12.267Z,20.90
2018-07-02T08:05:18.974Z,20.90
2018-07-02T08:09:25.909Z,20.60
2018-07-02T08:13:30.370Z,20.50
2018-07-02T08:17:37.126Z,20.90
2018-07-02T08:21:41.564Z,20.70
2018-07-02T08:25:45.872Z,20.40
2018-07-02T08:29:52.559Z,20.80
2018-07-02T08:33:57.047Z,20.30
2018-07-02T08:38:02.978Z,20.30
2018-07-02T08:42:07.463Z,20.80
2018-07-02T08:46:11.938Z,20.90
2018-07-02T08:50:18.402Z,21.20
2018-07-02T08:54:22.749Z,21.20
2018-07-02T08:58:28.627Z,20.60
2018-07-02T09:02:33.205Z,20.80
2018-07-02T09:06:37.456Z,21.30
2018-07-02T09:10:41.728Z,21.60
2018-07-02T09:14:46.085Z,21.50
2018-07-02T09:18:51.380Z,21.30
2018-07-02T09:22:55.872Z,21.60
2018-07-02T09:27:00.252Z,22.30
2018-07-02T09:31:04.537Z,23.10
2018-07-02T09:35:08.961Z,23.30
2018-07-02T09:39:13.893Z,23.90
2018-07-02T09:43:18.120Z,22.90
2018-07-02T09:47:22.507Z,22.80
2018-07-02T09:51:26.800Z,22.40
2018-07-02T09:55:31.339Z,23.10
2018-07-02T09:59:35.600Z,23.00
2018-07-02T10:03:39.962Z,23.20
2018-07-02T10:07:45.916Z,22.70
2018-07-02T10:11:50.263Z,23.00
2018-07-02T10:15:56.299Z,22.80
2018-07-02T10:20:00.568Z,22.20
2018-07-02T10:24:05.116Z,22.40
2018-07-02T10:28:09.478Z,23.20
2018-07-02T10:32:13.783Z,23.00
2018-07-02T10:36:18.243Z,22.40
2018-07-02T10:40:24.465Z,22.50
2018-07-02T10:44:28.764Z,23.50
2018-07-02T10:48:34.929Z,23.50
2018-07-02T10:52:39.299Z,23.20
2018-07-02T10:56:43.987Z,23.50
2018-07-02T11:00:50.653Z,23.30
2018-07-02T11:04:55.098Z,23.60
2018-07-02T11:08:59.516Z,23.80
2018-07-02T11:13:08.746Z,23.70
2018-07-02T11:17:13.245Z,24.10
2018-07-02T11:21:17.486Z,24.60
2018-07-02T11:25:21.727Z,23.80
2018-07-02T11:29:26.075Z,25.60
2018-07-02T11:33:30.295Z,27.00
2018-07-02T11:37:34.763Z,27.80
2018-07-02T11:41:39.316Z,28.50
2018-07-02T11:45:43.724Z,28.30
2018-07-02T11:49:48.030Z,28.40
2018-07-02T11:53:52.326Z,28.70
2018-07-02T11:57:56.664Z,28.20
2018-07-02T12:02:01.083Z,29.20
2018-07-02T12:06:05.280Z,28.10
2018-07-02T12:10:09.553Z,29.30
2018-07-02T12:14:13.883Z,28.30
2018-07-02T12:18:18.123Z,30.40
2018-07-02T12:22:22.341Z,31.00
2018-07-02T12:26:26.682Z,30.20
2018-07-02T12:30:30.987Z,29.90
2018-07-02T12:34:35.250Z,30.40
2018-07-02T12:38:39.566Z,28.00
2018-07-02T12:42:43.850Z,27.70
2018-07-02T12:46:48.280Z,28.80
2018-07-02T12:50:52.514Z,29.70
2018-07-02T12:54:56.985Z,30.90
2018-07-02T12:59:01.210Z,30.50
2018-07-02T13:03:05.541Z,30.80
2018-07-02T13:07:09.874Z,31.60
2018-07-02T13:11:14.142Z,30.90
2018-07-02T13:15:18.400Z,31.70
2018-07-02T13:19:22.655Z,30.50
2018-07-02T13:23:26.951Z,31.10
2018-07-02T13:27:31.194Z,30.20
2018-07-02T13:31:35.549Z,30.80
2018-07-02T13:35:39.812Z,31.70
2018-07-02T13:39:44.046Z,31.70
2018-07-02T13:43:48.307Z,31.70
2018-07-02T13:47:52.541Z,32.50
2018-07-02T13:51:56.817Z,33.30
2018-07-02T13:56:01.340Z,33.00
2018-07-02T14:00:05.998Z,33.50
2018-07-02T14:04:10.313Z,31.90
2018-07-02T14:08:14.585Z,29.60
2018-07-02T14:12:18.905Z,29.10
2018-07-02T14:16:23.294Z,29.80
2018-07-02T14:20:27.624Z,30.50
2018-07-02T14:24:31.923Z,32.90
2018-07-02T14:28:36.183Z,32.70
2018-07-02T14:32:40.474Z,32.00
2018-07-02T14:36:45.029Z,30.30
2018-07-02T14:40:49.383Z,31.90
2018-07-02T14:44:53.767Z,33.00
2018-07-02T14:48:57.924Z,33.00
2018-07-02T14:53:02.323Z,30.10
2018-07-02T14:57:06.553Z,28.00
2018-07-02T15:01:10.835Z,28.30
2018-07-02T15:05:15.208Z,29.90
2018-07-02T15:09:19.452Z,31.10
2018-07-02T15:13:23.861Z,31.40
2018-07-02T15:17:28.122Z,29.10
2018-07-02T15:21:32.352Z,27.30
2018-07-02T15:25:36.741Z,26.20
2018-07-02T15:29:41.074Z,26.20
2018-07-02T15:33:45.634Z,26.10
2018-07-02T15:37:50.262Z,26.10
2018-07-02T15:41:54.519Z,27.60
2018-07-02T15:45:58.804Z,29.10
2018-07-02T15:50:03.058Z,29.70
2018-07-02T15:54:07.446Z,30.40
2018-07-02T15:58:14.314Z,31.50
2018-07-02T16:02:18.569Z,31.20
2018-07-02T16:06:22.808Z,30.90
2018-07-02T16:10:27.019Z,30.50
2018-07-02T16:14:31.349Z,30.10
2018-07-02T16:18:35.708Z,30.20
2018-07-02T16:22:40.103Z,29.00
2018-07-02T16:26:44.270Z,28.10
2018-07-02T16:30:48.540Z,26.50
2018-07-02T16:34:52.724Z,25.50
2018-07-02T16:38:56.932Z,25.10
2018-07-02T16:43:01.310Z,24.50
2018-07-02T16:47:05.699Z,24.30
2018-07-02T16:51:10.115Z,23.90
2018-07-02T16:55:14.426Z,23.70
2018-07-02T16:59:18.748Z,23.40
2018-07-02T17:03:23.059Z,23.70
2018-07-02T17:07:27.349Z,23.60
2018-07-02T17:11:31.696Z,23.50
2018-07-02T17:15:36.028Z,23.30
2018-07-02T17:19:41.237Z,23.00
2018-07-02T17:23:45.920Z,22.70
2018-07-02T17:27:50.176Z,22.40
2018-07-02T17:31:54.683Z,22.50
2018-07-02T17:35:58.975Z,22.30
2018-07-02T17:40:03.897Z,22.10
2018-07-02T17:44:08.224Z,21.90
2018-07-02T17:48:12.537Z,21.90
2018-07-02T17:52:16.825Z,21.90
2018-07-02T17:56:22.253Z,21.80
2018-07-02T18:00:26.489Z,21.50
2018-07-02T18:04:30.746Z,21.10
2018-07-02T18:08:35.360Z,20.80
2018-07-02T18:12:39.710Z,20.70
2018-07-02T18:16:44.508Z,20.60
2018-07-02T18:20:49.002Z,20.30
2018-07-02T18:24:53.558Z,20.30
2018-07-02T18:28:57.994Z,20.00
2018-07-02T18:33:02.545Z,19.90
2018-07-02T18:37:07.117Z,20.10
2018-07-02T18:41:11.737Z,20.10
2018-07-02T18:45:16.094Z,19.90
2018-07-02T18:49:20.524Z,19.80
2018-07-02T18:53:24.985Z,19.70
2018-07-02T18:57:29.519Z,19.60
2018-07-02T19:01:34.257Z,19.60
2018-07-02T19:05:39.964Z,19.40
2018-07-02T19:09:44.700Z,19.20
2018-07-02T19:13:49.221Z,18.90
2018-07-02T19:17:53.708Z,18.70
2018-07-02T19:21:58.200Z,18.60
2018-07-02T19:26:02.643Z,18.40
2018-07-02T19:30:07.165Z,18.20
2018-07-02T19:34:11.713Z,18.10
2018-07-02T19:38:16.103Z,17.90
2018-07-02T19:42:20.634Z,17.90
2018-07-02T19:46:25.163Z,17.80
2018-07-02T19:50:29.565Z,17.80
2018-07-02T19:54:34.310Z,17.70
2018-07-02T19:58:38.920Z,17.90
2018-07-02T20:02:43.500Z,17.80
2018-07-02T20:06:48.099Z,18.00
2018-07-02T20:10:52.565Z,18.30
2018-07-02T20:14:57.587Z,18.40
2018-07-02T20:19:01.841Z,18.40
2018-07-02T20:23:06.340Z,18.40
2018-07-02T20:27:10.610Z,18.20
2018-07-02T20:31:14.899Z,18.30
2018-07-02T20:35:19.176Z,18.40
2018-07-02T20:39:23.521Z,18.50
2018-07-02T20:43:27.816Z,18.60
2018-07-02T20:47:32.077Z,18.60
2018-07-02T20:51:36.442Z,18.40
2018-07-02T20:55:40.680Z,18.30
2018-07-02T20:59:45.061Z,18.30
2018-07-02T21:03:49.302Z,18.50
2018-07-02T21:07:53.557Z,18.50
2018-07-02T21:11:57.809Z,18.30
2018-07-02T21:16:02.163Z,18.20
2018-07-02T21:20:06.556Z,18.00
2018-07-02T21:24:10.924Z,17.90
2018-07-02T21:28:15.350Z,17.90
2018-07-02T21:32:19.545Z,17.80
2018-07-02T21:36:23.852Z,17.90
2018-07-02T21:40:28.078Z,17.90
2018-07-02T21:44:32.286Z,18.00
2018-07-02T21:48:36.905Z,18.00
2018-07-02T21:52:41.158Z,17.80
2018-07-02T21:56:46.069Z,17.90
2018-07-02T22:00:50.287Z,17.90
2018-07-02T22:04:54.595Z,17.80
2018-07-02T22:08:58.965Z,17.70
2018-07-02T22:13:03.439Z,17.70
2018-07-02T22:17:07.786Z,17.90
2018-07-02T22:21:12.142Z,17.80
2018-07-02T22:25:16.442Z,17.80
2018-07-02T22:29:20.831Z,17.80
2018-07-02T22:33:25.063Z,17.70
2018-07-02T22:37:29.317Z,17.70
2018-07-02T22:41:33.703Z,17.70
2018-07-02T22:45:37.918Z,17.70
2018-07-02T22:49:42.266Z,17.70
2018-07-02T22:53:46.581Z,17.70
2018-07-02T22:57:50.791Z,17.70
2018-07-02T23:01:55.029Z,17.80
2018-07-02T23:05:59.324Z,17.80
2018-07-02T23:10:03.702Z,17.70
2018-07-02T23:14:08.131Z,17.60
2018-07-02T23:18:12.406Z,17.60
2018-07-02T23:22:16.631Z,17.50
2018-07-02T23:26:21.145Z,17.50
2018-07-02T23:30:25.439Z,17.50
2018-07-02T23:34:29.673Z,17.50
2018-07-02T23:38:34.054Z,17.40
2018-07-02T23:42:38.329Z,17.50
2018-07-02T23:46:42.949Z,17.50
2018-07-02T23:50:47.307Z,17.40
2018-07-02T23:54:51.828Z,17.30
2018-07-02T23:58:56.117Z,17.30
